createdAt,value
2023-03-02T00:02:17.691Z,24.15
2023-03-02T00:04:53.107Z,20.88
2023-03-02T00:07:25.735Z,23.18
2023-03-02T00:09:55.765Z,23.05
2023-03-02T00:12:27.596Z,21.33
2023-03-02T00:14:57.321Z,23.40
2023-03-02T00:17:29.290Z,22.17
2023-03-02T00:20:00.783Z,19.70
2023-03-02T00:22:30.022Z,23.35
2023-03-02T00:24:59.265Z,22.00
2023-03-02T00:27:30.308Z,21.77
2023-03-02T00:30:00.105Z,20.57
2023-03-02T00:32:29.680Z,21.17
2023-03-02T00:34:59.790Z,25.77
2023-03-02T00:37:29.209Z,24.85
2023-03-02T00:39:58.717Z,23.45
2023-03-02T00:42:28.119Z,23.40
2023-03-02T00:44:59.290Z,26.85
2023-03-02T00:47:30.330Z,26.37
2023-03-02T00:49:59.572Z,24.82
2023-03-02T00:52:31.257Z,24.25
2023-03-02T00:55:00.871Z,33.65
2023-03-02T00:57:30.609Z,27.65
2023-03-02T01:00:00.182Z,28.83
2023-03-02T01:02:31.298Z,30.52
2023-03-02T01:05:00.901Z,31.85
2023-03-02T01:07:30.199Z,31.85
2023-03-02T01:10:00.355Z,29.45
2023-03-02T01:12:29.595Z,29.75
2023-03-02T01:14:58.991Z,30.75
2023-03-02T01:17:28.809Z,31.42
2023-03-02T01:19:58.156Z,31.48
2023-03-02T01:22:27.945Z,31.95
2023-03-02T01:24:57.210Z,35.48
2023-03-02T01:27:26.460Z,37.03
2023-03-02T01:29:55.884Z,39.48
2023-03-02T01:32:25.326Z,43.75
2023-03-02T01:34:54.565Z,43.75
2023-03-02T01:37:24.061Z,48.45
2023-03-02T01:39:53.286Z,54.25
2023-03-02T01:42:22.883Z,52.75
2023-03-02T01:44:56.379Z,56.23
2023-03-02T01:47:37.234Z,55.95
2023-03-02T01:52:38.811Z,53.85
2023-03-02T01:55:10.592Z,63.23
2023-03-02T01:57:43.917Z,65.90
2023-03-02T02:00:15.988Z,67.32
2023-03-02T02:02:45.647Z,69.05
2023-03-02T02:05:21.034Z,72.37
2023-03-02T02:07:50.550Z,75.72
2023-03-02T02:10:20.079Z,75.80
2023-03-02T02:12:49.334Z,80.17
2023-03-02T02:15:18.699Z,77.95
2023-03-02T02:17:48.049Z,80.70
2023-03-02T02:20:35.873Z,81.78
2023-03-02T02:23:08.796Z,83.72
2023-03-02T02:25:57.970Z,89.55
2023-03-02T02:28:30.472Z,94.65
2023-03-02T02:31:17.937Z,90.75
2023-03-02T02:33:51.890Z,91.82
2023-03-02T02:36:24.757Z,89.92
2023-03-02T02:38:56.800Z,87.50
2023-03-02T02:41:29.400Z,91.25
2023-03-02T02:43:58.901Z,97.45
2023-03-02T02:46:28.305Z,94.35
2023-03-02T02:48:58.258Z,95.72
2023-03-02T02:51:29.473Z,94.85
2023-03-02T02:54:03.424Z,98.87
2023-03-02T02:56:37.273Z,97.25
2023-03-02T02:59:22.026Z,104.20
2023-03-02T03:01:52.741Z,101.53
2023-03-02T03:04:25.275Z,96.15
2023-03-02T03:06:57.955Z,101.12
2023-03-02T03:09:28.703Z,99.37
2023-03-02T03:12:04.193Z,105.05
2023-03-02T03:14:36.054Z,93.82
2023-03-02T03:17:08.222Z,99.87
2023-03-02T03:19:38.259Z,107.03
2023-03-02T03:22:08.158Z,107.22
2023-03-02T03:24:37.555Z,110.83
2023-03-02T03:27:08.073Z,107.63
2023-03-02T03:32:10.333Z,95.77
2023-03-02T03:34:41.800Z,109.17
2023-03-02T03:37:18.448Z,105.00
2023-03-02T03:39:48.139Z,119.70
2023-03-02T03:42:18.143Z,107.35
2023-03-02T03:44:48.215Z,111.97
2023-03-02T03:47:17.983Z,119.08
2023-03-02T03:49:47.727Z,112.62
2023-03-02T03:52:17.534Z,112.62
2023-03-02T03:54:46.818Z,116.60
2023-03-02T03:57:16.073Z,113.77
2023-03-02T03:59:45.339Z,120.45
2023-03-02T04:02:14.957Z,113.85
2023-03-02T04:04:45.936Z,122.67
2023-03-02T04:07:17.271Z,117.95
2023-03-02T04:09:48.034Z,113.72
2023-03-02T04:12:18.036Z,118.60
2023-03-02T04:14:51.968Z,118.55
2023-03-02T04:17:21.722Z,125.38
2023-03-02T04:19:51.510Z,121.40
2023-03-02T04:22:22.214Z,113.12
2023-03-02T04:24:51.783Z,115.80
2023-03-02T04:27:22.053Z,122.47
2023-03-02T04:29:53.096Z,121.97
2023-03-02T04:32:22.793Z,117.22
2023-03-02T04:34:53.864Z,116.85
2023-03-02T04:37:23.486Z,117.95
2023-03-02T04:39:53.669Z,114.32
2023-03-02T04:42:23.860Z,114.62
2023-03-02T04:44:53.138Z,115.03
2023-03-02T04:47:22.546Z,121.70
2023-03-02T04:49:53.629Z,124.18
2023-03-02T04:52:23.545Z,121.75
2023-03-02T04:54:53.458Z,118.20
2023-03-02T04:57:22.820Z,121.00
2023-03-02T04:59:52.074Z,118.70
2023-03-02T05:02:21.574Z,120.10
2023-03-02T05:04:50.994Z,120.45
2023-03-02T05:07:20.468Z,115.40
2023-03-02T05:09:49.876Z,112.42
2023-03-02T05:12:20.744Z,126.27
2023-03-02T05:14:50.082Z,117.62
2023-03-02T05:17:19.658Z,123.72
2023-03-02T05:19:48.921Z,115.15
2023-03-02T05:22:18.292Z,115.72
2023-03-02T05:24:47.613Z,106.52
2023-03-02T05:27:17.080Z,117.55
2023-03-02T05:29:46.355Z,121.97
2023-03-02T05:32:15.746Z,116.85
2023-03-02T05:34:45.225Z,120.37
2023-03-02T05:37:14.468Z,114.50
2023-03-02T05:39:44.053Z,109.05
2023-03-02T05:42:13.285Z,124.82
2023-03-02T05:44:42.566Z,127.67
2023-03-02T05:47:12.216Z,108.30
2023-03-02T05:49:41.472Z,119.13
2023-03-02T05:52:10.941Z,118.02
2023-03-02T05:54:41.094Z,115.80
2023-03-02T05:57:10.331Z,123.22
2023-03-02T05:59:39.827Z,118.60
2023-03-02T06:02:09.143Z,122.05
2023-03-02T06:04:40.026Z,109.57
2023-03-02T06:07:11.239Z,104.67
2023-03-02T06:09:41.404Z,122.70
2023-03-02T06:12:10.969Z,114.12
2023-03-02T06:14:40.256Z,109.90
2023-03-02T06:17:09.523Z,115.15
2023-03-02T06:19:38.782Z,113.72
2023-03-02T06:22:08.018Z,112.70
2023-03-02T06:24:37.331Z,121.72
2023-03-02T06:27:06.582Z,110.08
2023-03-02T06:29:35.914Z,119.05
2023-03-02T06:32:05.726Z,112.15
2023-03-02T06:34:35.562Z,121.45
2023-03-02T06:37:04.941Z,112.15
2023-03-02T06:39:35.139Z,108.47
2023-03-02T06:42:04.404Z,125.62
2023-03-02T06:44:34.034Z,113.08
2023-03-02T06:47:03.292Z,115.22
2023-03-02T06:49:33.247Z,108.87
2023-03-02T06:52:02.497Z,113.28
2023-03-02T06:54:31.874Z,109.72
2023-03-02T06:57:01.297Z,119.22
2023-03-02T06:59:30.942Z,121.60
2023-03-02T07:02:00.324Z,115.05
2023-03-02T07:04:29.656Z,109.85
2023-03-02T07:06:58.988Z,113.77
2023-03-02T07:09:29.954Z,109.17
2023-03-02T07:11:59.230Z,115.85
2023-03-02T07:14:28.751Z,110.92
2023-03-02T07:16:59.697Z,113.52
2023-03-02T07:19:29.379Z,119.75
2023-03-02T07:21:59.014Z,116.28
2023-03-02T07:24:28.374Z,117.97
2023-03-02T07:26:57.713Z,111.85
2023-03-02T07:29:26.920Z,107.20
2023-03-02T07:31:57.864Z,106.90
2023-03-02T07:34:28.129Z,92.33
2023-03-02T07:36:57.954Z,90.95
2023-03-02T07:39:27.364Z,78.07
2023-03-02T07:42:01.810Z,80.30
2023-03-02T07:44:31.899Z,68.85
2023-03-02T07:47:01.437Z,64.53
2023-03-02T07:49:30.741Z,66.95
2023-03-02T07:52:00.138Z,61.45
2023-03-02T07:54:30.531Z,62.55
2023-03-02T07:57:00.157Z,60.60
2023-03-02T07:59:29.643Z,63.45
2023-03-02T08:01:59.524Z,60.80
2023-03-02T08:04:28.841Z,60.23
2023-03-02T08:06:58.160Z,59.73
2023-03-02T08:09:27.382Z,58.13
2023-03-02T08:11:57.117Z,54.38
2023-03-02T08:14:26.619Z,59.18
2023-03-02T08:16:55.844Z,58.42
2023-03-02T08:19:26.444Z,52.98
2023-03-02T08:21:55.753Z,56.55
2023-03-02T08:24:25.340Z,53.50
2023-03-02T08:26:55.159Z,53.20
2023-03-02T08:29:24.669Z,50.58
2023-03-02T08:31:54.025Z,48.85
2023-03-02T08:34:23.382Z,46.83
2023-03-02T08:36:52.808Z,46.05
2023-03-02T08:39:24.821Z,49.48
2023-03-02T08:41:54.309Z,48.95
2023-03-02T08:44:23.904Z,46.80
2023-03-02T08:46:53.283Z,47.27
2023-03-02T08:49:23.388Z,46.20
2023-03-02T08:51:53.783Z,47.93
2023-03-02T08:54:24.272Z,44.85
2023-03-02T08:56:53.670Z,39.45
2023-03-02T08:59:23.201Z,39.53
2023-03-02T09:01:52.440Z,43.33
2023-03-02T09:04:22.052Z,40.90
2023-03-02T09:06:51.411Z,39.42
2023-03-02T09:09:20.784Z,41.13
2023-03-02T09:11:50.179Z,39.18
2023-03-02T09:14:19.719Z,40.88
2023-03-02T09:16:49.285Z,39.58
2023-03-02T09:19:18.657Z,36.90
2023-03-02T09:21:47.962Z,35.28
2023-03-02T09:24:17.584Z,41.23
2023-03-02T09:26:46.840Z,36.60
2023-03-02T09:29:16.087Z,36.58
2023-03-02T09:31:45.423Z,36.08
2023-03-02T09:34:14.884Z,36.23
2023-03-02T09:36:44.154Z,36.08
2023-03-02T09:39:13.680Z,38.70
2023-03-02T09:42:17.903Z,37.50
2023-03-02T09:45:01.651Z,33.40
2023-03-02T09:47:45.501Z,36.45
2023-03-02T09:50:21.143Z,34.70
2023-03-02T09:53:05.032Z,35.23
2023-03-02T09:55:36.149Z,32.23
2023-03-02T09:58:11.534Z,36.88
2023-03-02T10:00:43.915Z,33.28
2023-03-02T10:03:18.548Z,33.15
2023-03-02T10:05:54.206Z,31.05
2023-03-02T10:08:28.618Z,32.98
2023-03-02T10:11:25.842Z,34.18
2023-03-02T10:14:04.421Z,37.17
2023-03-02T10:16:52.205Z,33.95
2023-03-02T10:19:37.799Z,30.23
2023-03-02T10:22:22.250Z,31.55
2023-03-02T10:25:09.386Z,30.50
2023-03-02T10:27:41.260Z,30.57
2023-03-02T10:30:28.164Z,29.85
2023-03-02T10:33:00.720Z,29.23
2023-03-02T10:38:19.856Z,32.05
2023-03-02T10:41:00.121Z,31.93
2023-03-02T10:43:37.111Z,32.33
2023-03-02T10:46:09.324Z,30.82
2023-03-02T10:49:00.709Z,31.45
2023-03-02T10:51:32.060Z,26.93
2023-03-02T10:54:17.037Z,28.65
2023-03-02T10:56:51.954Z,31.85
2023-03-02T10:59:46.071Z,29.10
2023-03-02T11:02:27.606Z,28.77
2023-03-02T11:05:03.104Z,27.02
2023-03-02T11:07:32.430Z,23.83
2023-03-02T11:10:10.982Z,25.08
2023-03-02T11:12:43.685Z,29.02
2023-03-02T11:15:16.186Z,26.05
2023-03-02T11:20:25.956Z,24.25
2023-03-02T11:23:12.926Z,23.32
2023-03-02T11:25:45.472Z,25.20
2023-03-02T11:30:48.732Z,23.20
2023-03-02T11:33:21.278Z,22.37
2023-03-02T11:35:59.563Z,21.65
2023-03-02T11:38:32.048Z,23.32
2023-03-02T11:43:31.253Z,25.23
2023-03-02T11:46:10.788Z,18.67
2023-03-02T11:48:48.943Z,21.37
2023-03-02T11:51:24.252Z,21.57
2023-03-02T11:53:59.518Z,19.55
2023-03-02T11:56:31.934Z,22.95
2023-03-02T11:59:05.857Z,20.45
2023-03-02T12:01:38.581Z,20.23
2023-03-02T12:04:10.477Z,21.37
2023-03-02T12:06:43.531Z,20.70
2023-03-02T12:09:25.100Z,20.82
2023-03-02T12:12:05.458Z,20.45
2023-03-02T12:14:40.740Z,19.77
2023-03-02T12:17:30.050Z,20.27
2023-03-02T12:20:11.955Z,20.43
2023-03-02T12:22:42.277Z,19.47
2023-03-02T12:25:23.956Z,19.48
2023-03-02T12:27:55.018Z,18.32
2023-03-02T12:30:27.399Z,20.97
2023-03-02T12:33:14.176Z,20.55
2023-03-02T12:35:43.723Z,20.08
2023-03-02T12:38:25.205Z,18.35
2023-03-02T12:41:10.108Z,17.95
2023-03-02T12:43:55.311Z,17.02
2023-03-02T12:46:27.836Z,17.40
2023-03-02T12:49:12.677Z,16.02
2023-03-02T12:51:51.620Z,19.20
2023-03-02T12:54:23.851Z,17.75
2023-03-02T12:57:12.750Z,17.50
2023-03-02T12:59:42.569Z,16.05
2023-03-02T13:02:23.736Z,16.07
2023-03-02T13:05:01.261Z,14.83
2023-03-02T13:07:39.151Z,14.75
2023-03-02T13:10:11.666Z,15.55
2023-03-02T13:15:19.092Z,17.95
2023-03-02T13:17:57.390Z,16.17
2023-03-02T13:20:29.683Z,16.25
2023-03-02T13:22:58.970Z,19.15
2023-03-02T13:25:31.047Z,15.70
2023-03-02T13:28:03.653Z,15.28
2023-03-02T13:30:34.512Z,15.85
2023-03-02T13:33:09.777Z,20.15
2023-03-02T13:35:39.293Z,20.65
2023-03-02T13:38:17.426Z,16.97
2023-03-02T13:40:49.325Z,18.55
2023-03-02T13:43:33.789Z,18.92
2023-03-02T13:46:06.712Z,19.40
2023-03-02T13:48:35.974Z,18.32
2023-03-02T13:51:16.840Z,18.73
2023-03-02T13:53:57.267Z,17.67
2023-03-02T13:56:29.561Z,19.67
2023-03-02T13:58:58.836Z,19.80
2023-03-02T14:01:28.945Z,17.32
2023-03-02T14:03:59.983Z,18.00
2023-03-02T14:06:29.260Z,17.50
2023-03-02T14:08:58.793Z,17.67
2023-03-02T14:11:30.620Z,18.00
2023-03-02T14:14:02.032Z,17.48
2023-03-02T14:16:31.722Z,16.93
2023-03-02T14:19:01.251Z,16.97
2023-03-02T14:21:30.758Z,16.50
2023-03-02T14:24:00.278Z,16.30
2023-03-02T14:26:37.920Z,16.00
2023-03-02T14:29:19.505Z,16.85
2023-03-02T14:31:49.037Z,17.32
2023-03-02T14:34:19.210Z,16.57
2023-03-02T14:36:51.590Z,16.73
2023-03-02T14:39:29.879Z,17.77
2023-03-02T14:41:59.572Z,15.68
2023-03-02T14:44:29.640Z,15.30
2023-03-02T14:46:59.032Z,16.97
2023-03-02T14:49:28.647Z,16.67
2023-03-02T14:52:16.070Z,15.58
2023-03-02T14:54:54.096Z,17.42
2023-03-02T14:57:28.340Z,15.48
2023-03-02T15:00:00.135Z,15.43
2023-03-02T15:02:29.979Z,16.05
2023-03-02T15:04:59.287Z,17.67
2023-03-02T15:07:29.370Z,15.58
2023-03-02T15:09:59.278Z,17.35
2023-03-02T15:12:28.516Z,15.18
2023-03-02T15:14:58.088Z,15.53
2023-03-02T15:17:27.345Z,15.08
2023-03-02T15:19:56.809Z,17.25
2023-03-02T15:22:26.230Z,14.93
2023-03-02T15:24:55.814Z,13.75
2023-03-02T15:27:25.291Z,13.05
2023-03-02T15:29:56.692Z,14.47
2023-03-02T15:32:26.722Z,13.83
2023-03-02T15:34:56.080Z,15.03
2023-03-02T15:37:25.912Z,15.08
2023-03-02T15:39:56.483Z,14.25
2023-03-02T15:42:26.057Z,14.13
2023-03-02T15:44:55.391Z,13.83
2023-03-02T15:47:24.994Z,11.55
2023-03-02T15:49:54.182Z,14.10
2023-03-02T15:52:23.481Z,11.90
2023-03-02T15:54:52.801Z,13.60
2023-03-02T15:57:22.401Z,15.58
2023-03-02T15:59:51.841Z,14.25
2023-03-02T16:02:21.088Z,12.68
2023-03-02T16:04:50.606Z,19.17
2023-03-02T16:07:20.113Z,19.95
2023-03-02T16:09:49.315Z,20.60
2023-03-02T16:12:21.004Z,20.27
2023-03-02T16:14:50.326Z,23.50
2023-03-02T16:17:19.696Z,22.93
2023-03-02T16:19:49.448Z,23.30
2023-03-02T16:22:20.466Z,23.10
2023-03-02T16:24:50.522Z,22.50
2023-03-02T16:27:19.823Z,24.27
2023-03-02T16:29:49.193Z,21.50
2023-03-02T16:32:18.613Z,20.37
2023-03-02T16:34:48.186Z,20.10
2023-03-02T16:37:17.440Z,20.92
2023-03-02T16:39:47.325Z,20.52
2023-03-02T16:42:18.445Z,22.25
2023-03-02T16:44:48.914Z,20.10
2023-03-02T16:47:18.153Z,22.77
2023-03-02T16:49:47.429Z,21.42
2023-03-02T16:52:17.672Z,21.50
2023-03-02T16:54:47.849Z,20.70
2023-03-02T16:57:17.386Z,33.40
2023-03-02T16:59:46.745Z,35.90
2023-03-02T17:02:16.054Z,36.20
2023-03-02T17:04:45.771Z,37.58
2023-03-02T17:07:14.967Z,44.70
2023-03-02T17:09:44.668Z,41.08
2023-03-02T17:12:13.920Z,38.40
2023-03-02T17:14:43.249Z,39.60
2023-03-02T17:17:12.523Z,46.05
2023-03-02T17:19:41.856Z,42.58
2023-03-02T17:22:11.079Z,45.75
2023-03-02T17:24:41.424Z,43.48
2023-03-02T17:27:24.159Z,42.70
2023-03-02T17:29:43.315Z,44.42
2023-03-02T17:32:12.700Z,40.75
2023-03-02T17:34:43.440Z,42.05
2023-03-02T17:37:12.735Z,40.92
2023-03-02T17:39:42.375Z,43.17
2023-03-02T17:42:11.835Z,43.38
2023-03-02T17:44:43.658Z,41.50
2023-03-02T17:47:14.882Z,41.68
2023-03-02T17:49:45.490Z,39.00
2023-03-02T17:52:16.157Z,41.65
2023-03-02T17:54:45.998Z,44.33
2023-03-02T17:57:16.555Z,45.33
2023-03-02T17:59:46.236Z,47.85
2023-03-02T18:02:15.539Z,49.23
2023-03-02T18:04:45.609Z,48.92
2023-03-02T18:07:15.935Z,55.10
2023-03-02T18:09:45.599Z,52.85
2023-03-02T18:12:14.825Z,56.95
2023-03-02T18:14:44.170Z,52.17
2023-03-02T18:17:15.029Z,54.20
2023-03-02T18:19:45.536Z,53.78
2023-03-02T18:22:15.502Z,53.70
2023-03-02T18:24:44.684Z,54.70
2023-03-02T18:27:14.201Z,52.43
2023-03-02T18:29:43.527Z,52.62
2023-03-02T18:32:13.121Z,51.30
2023-03-02T18:34:42.622Z,50.88
2023-03-02T18:37:12.318Z,51.00
2023-03-02T18:39:41.825Z,53.30
2023-03-02T18:42:12.731Z,49.18
2023-03-02T18:44:42.258Z,49.77
2023-03-02T18:47:15.034Z,45.85
2023-03-02T18:49:45.314Z,44.90
2023-03-02T18:52:16.482Z,45.23
2023-03-02T18:54:47.766Z,45.60
2023-03-02T18:57:17.320Z,44.88
2023-03-02T18:59:47.056Z,43.85
2023-03-02T19:02:16.525Z,41.98
2023-03-02T19:04:46.181Z,41.45
2023-03-02T19:07:15.574Z,41.35
2023-03-02T19:09:44.988Z,40.23
2023-03-02T19:12:14.240Z,41.75
2023-03-02T19:14:44.127Z,37.98
2023-03-02T19:17:13.806Z,36.73
2023-03-02T19:19:43.949Z,37.15
2023-03-02T19:22:15.111Z,35.13
2023-03-02T19:24:46.119Z,34.50
2023-03-02T19:27:16.327Z,37.85
2023-03-02T19:29:45.595Z,30.85
2023-03-02T19:32:15.133Z,35.03
2023-03-02T19:34:44.800Z,33.28
2023-03-02T19:37:14.341Z,33.40
2023-03-02T19:39:44.170Z,36.70
2023-03-02T19:42:14.106Z,35.70
2023-03-02T19:44:43.803Z,34.70
2023-03-02T19:47:13.283Z,37.10
2023-03-02T19:49:42.779Z,37.42
2023-03-02T19:52:12.332Z,35.55
2023-03-02T19:54:43.677Z,35.68
2023-03-02T19:57:13.803Z,35.03
2023-03-02T19:59:43.328Z,32.38
2023-03-02T20:02:15.053Z,33.13
2023-03-02T20:04:45.218Z,38.85
2023-03-02T20:07:15.365Z,35.75
2023-03-02T20:09:44.616Z,35.98
2023-03-02T20:12:16.085Z,36.13
2023-03-02T20:14:46.992Z,35.88
2023-03-02T20:17:17.329Z,32.58
2023-03-02T20:19:47.167Z,33.95
2023-03-02T20:22:17.397Z,32.80
2023-03-02T20:24:46.801Z,34.78
2023-03-02T20:27:16.239Z,36.17
2023-03-02T20:29:45.535Z,33.05
2023-03-02T20:32:15.569Z,30.82
2023-03-02T20:34:45.211Z,30.45
2023-03-02T20:37:16.440Z,31.25
2023-03-02T20:39:48.094Z,33.00
2023-03-02T20:42:17.710Z,31.15
2023-03-02T20:44:47.481Z,33.70
2023-03-02T20:47:17.894Z,32.15
2023-03-02T20:49:47.329Z,33.98
2023-03-02T20:52:16.678Z,33.75
2023-03-02T20:54:46.022Z,31.42
2023-03-02T20:57:20.631Z,32.95
2023-03-02T20:59:50.269Z,33.13
2023-03-02T21:02:21.160Z,38.10
2023-03-02T21:04:50.827Z,35.48
2023-03-02T21:07:20.212Z,33.38
2023-03-02T21:09:49.534Z,39.15
2023-03-02T21:12:18.989Z,39.05
2023-03-02T21:14:48.357Z,38.33
2023-03-02T21:17:17.740Z,38.63
2023-03-02T21:19:47.116Z,39.60
2023-03-02T21:22:16.412Z,35.28
2023-03-02T21:24:45.965Z,39.27
2023-03-02T21:27:15.921Z,40.35
2023-03-02T21:29:45.342Z,37.25
2023-03-02T21:32:14.932Z,39.40
2023-03-02T21:34:44.871Z,40.17
2023-03-02T21:37:14.117Z,42.08
2023-03-02T21:39:43.768Z,42.03
2023-03-02T21:42:13.063Z,43.02
2023-03-02T21:44:42.846Z,41.88
2023-03-02T21:47:12.130Z,46.40
2023-03-02T21:49:41.413Z,41.48
2023-03-02T21:52:10.720Z,46.75
2023-03-02T21:54:47.347Z,45.25
2023-03-02T21:57:21.445Z,45.63
2023-03-02T21:59:52.609Z,49.55
2023-03-02T22:02:25.290Z,48.78
2023-03-02T22:04:55.912Z,48.85
2023-03-02T22:07:27.265Z,47.23
2023-03-02T22:09:56.756Z,48.02
2023-03-02T22:12:32.326Z,54.05
2023-03-02T22:15:07.279Z,57.15
2023-03-02T22:17:38.032Z,50.08
2023-03-02T22:20:17.838Z,51.48
2023-03-02T22:22:50.696Z,57.70
2023-03-02T22:25:21.896Z,54.93
2023-03-02T22:27:51.836Z,59.58
2023-03-02T22:30:23.964Z,59.35
2023-03-02T22:32:57.942Z,61.55
2023-03-02T22:35:29.616Z,61.13
2023-03-02T22:38:07.879Z,59.08
2023-03-02T22:43:34.956Z,59.88
2023-03-02T22:46:18.326Z,64.30
2023-03-02T22:48:50.937Z,68.37
2023-03-02T22:51:25.691Z,64.40
2023-03-02T22:53:57.113Z,63.15
2023-03-02T22:56:40.322Z,68.70
2023-03-02T22:59:22.826Z,72.05
2023-03-02T23:04:32.633Z,66.00
2023-03-02T23:07:03.592Z,75.42
2023-03-02T23:09:34.923Z,76.45
2023-03-02T23:12:15.912Z,71.57
2023-03-02T23:14:53.404Z,79.85
2023-03-02T23:17:35.266Z,80.45
2023-03-02T23:20:07.482Z,73.10
2023-03-02T23:22:39.281Z,90.47
2023-03-02T23:25:09.167Z,61.00
2023-03-02T23:27:38.739Z,80.83
2023-03-02T23:30:08.843Z,81.45
2023-03-02T23:32:38.135Z,79.27
2023-03-02T23:35:07.944Z,83.95
2023-03-02T23:37:37.271Z,84.60
2023-03-02T23:40:07.714Z,91.28
2023-03-02T23:42:37.244Z,90.32
2023-03-02T23:45:08.346Z,88.20
2023-03-02T23:47:38.434Z,88.33
2023-03-02T23:50:09.297Z,85.65
2023-03-02T23:52:39.595Z,96.78
2023-03-02T23:55:10.292Z,94.67
2023-03-02T23:57:39.576Z,95.75
